Bilzen, Belgium
Current Conditions -  °F | °C
As of 11:55 AM on Tuesday 21 Oct 2014 (Local Time) from EHBK Reporting Station
Light Rain Light Rain  
Wind Chill: 54°   Ceiling: 1500
Heat Index: 54°   Visibility: 4mi
Dew Point: 50°   Wind: 23mph
Humidity: 88%   Direction: 210°SSW
Pressure: 29.68"   Gusts: NA
Location:  50.87°N, 5.52°E
Report Text: EHBK 210955Z AUTO 21020KT 180V240 7000 -RA FEW013 BKN015CBBKN016 OVC020 12/10 Q1005 RERA REDZ TEMPO 7000 -RA -SHRA BKN015
Loading
Personal Weather Stations






























Interactive Weather Map
Tropical Storm Tracking
New forecast layout! Learn more

10-Day Weather Forecast

Advertisements
Track Severe Weather on mobile